createdAt,value
2024-02-23T00:01:09.654Z,77.74
2024-02-23T00:03:37.931Z,78.18
2024-02-23T00:06:05.196Z,78.25
2024-02-23T00:08:32.040Z,78.90
2024-02-23T00:10:58.987Z,80.85
2024-02-23T00:13:25.642Z,76.22
2024-02-23T00:15:53.012Z,79.57
2024-02-23T00:18:20.082Z,77.65
2024-02-23T00:20:48.115Z,78.45
2024-02-23T00:23:14.897Z,78.90
2024-02-23T00:25:42.325Z,76.09
2024-02-23T00:28:09.804Z,81.28
2024-02-23T00:30:37.099Z,75.02
2024-02-23T00:33:04.430Z,79.76
2024-02-23T00:35:31.492Z,80.36
2024-02-23T00:37:58.227Z,77.89
2024-02-23T00:40:25.152Z,76.82
2024-02-23T00:42:51.860Z,76.94
2024-02-23T00:45:18.867Z,75.19
2024-02-23T00:47:47.984Z,75.95
2024-02-23T00:50:15.596Z,76.44
2024-02-23T00:52:42.528Z,75.99
2024-02-23T00:55:09.850Z,79.46
2024-02-23T00:57:37.822Z,77.92
2024-02-23T01:00:06.468Z,79.81
2024-02-23T01:02:34.906Z,81.40
2024-02-23T01:05:01.814Z,80.65
2024-02-23T01:07:29.063Z,82.37
2024-02-23T01:09:56.015Z,81.50
2024-02-23T01:12:23.035Z,81.93
2024-02-23T01:14:49.872Z,83.16
2024-02-23T01:17:16.751Z,82.28
2024-02-23T01:19:45.571Z,83.51
2024-02-23T01:22:12.333Z,83.74
2024-02-23T01:24:39.105Z,85.63
2024-02-23T01:27:05.781Z,84.01
2024-02-23T01:29:32.500Z,84.56
2024-02-23T01:31:59.912Z,86.80
2024-02-23T01:34:26.868Z,89.46
2024-02-23T01:36:53.663Z,89.76
2024-02-23T01:39:20.290Z,87.16
2024-02-23T01:41:47.086Z,87.39
2024-02-23T01:44:13.630Z,86.92
2024-02-23T01:46:40.438Z,91.12
2024-02-23T01:49:10.261Z,92.86
2024-02-23T01:51:37.484Z,100.00
2024-02-23T01:54:05.097Z,97.45
2024-02-23T01:56:34.165Z,100.00
2024-02-23T01:59:04.475Z,100.00
2024-02-23T02:01:32.454Z,100.00
2024-02-23T02:04:00.230Z,100.00
2024-02-23T02:06:27.152Z,100.00
2024-02-23T02:08:55.164Z,100.00
2024-02-23T02:11:22.314Z,100.00
2024-02-23T02:13:48.996Z,99.54
2024-02-23T02:16:15.683Z,96.02
2024-02-23T02:18:42.279Z,94.50
2024-02-23T02:21:09.016Z,94.98
2024-02-23T02:23:35.755Z,97.52
2024-02-23T02:26:02.344Z,92.45
2024-02-23T02:28:29.029Z,96.11
2024-02-23T02:30:55.815Z,93.81
2024-02-23T02:33:23.466Z,92.45
2024-02-23T02:35:51.088Z,92.37
2024-02-23T02:38:17.835Z,89.50
2024-02-23T02:40:44.691Z,89.79
2024-02-23T02:43:11.695Z,91.17
2024-02-23T02:45:38.699Z,86.67
2024-02-23T02:48:05.763Z,89.99
2024-02-23T02:50:32.747Z,85.19
2024-02-23T02:52:59.619Z,86.93
2024-02-23T02:55:26.219Z,85.69
2024-02-23T02:57:52.831Z,85.94
2024-02-23T03:00:19.422Z,89.18
2024-02-23T03:02:46.024Z,85.03
2024-02-23T03:05:12.698Z,84.79
2024-02-23T03:07:39.354Z,85.47
2024-02-23T03:10:06.977Z,87.66
2024-02-23T03:12:33.913Z,85.29
2024-02-23T03:15:00.771Z,86.26
2024-02-23T03:17:27.402Z,84.91
2024-02-23T03:19:54.367Z,87.29
2024-02-23T03:22:21.315Z,89.35
2024-02-23T03:24:47.925Z,88.16
2024-02-23T03:27:14.588Z,88.06
2024-02-23T03:29:41.824Z,87.06
2024-02-23T03:32:09.271Z,87.22
2024-02-23T03:34:37.561Z,89.83
2024-02-23T03:37:04.421Z,87.77
2024-02-23T03:39:31.133Z,89.09
2024-02-23T03:41:57.709Z,87.29
2024-02-23T03:44:24.683Z,85.58
2024-02-23T03:46:51.539Z,86.85
2024-02-23T03:49:18.501Z,87.07
2024-02-23T03:51:45.483Z,81.88
2024-02-23T03:54:12.137Z,84.36
2024-02-23T03:56:42.371Z,82.78
2024-02-23T03:59:11.071Z,84.18
2024-02-23T04:01:40.395Z,83.89
2024-02-23T04:04:07.626Z,82.13
2024-02-23T04:06:35.632Z,85.45
2024-02-23T04:09:06.077Z,82.39
2024-02-23T04:11:33.448Z,82.66
2024-02-23T04:14:01.505Z,81.76
2024-02-23T04:16:29.163Z,82.35
2024-02-23T04:18:57.224Z,80.92
2024-02-23T04:21:23.818Z,81.30
2024-02-23T04:23:50.388Z,80.57
2024-02-23T04:26:16.923Z,80.94
2024-02-23T04:28:44.077Z,85.32
2024-02-23T04:31:11.247Z,84.50
2024-02-23T04:33:39.346Z,81.70
2024-02-23T04:36:06.909Z,81.31
2024-02-23T04:38:33.980Z,80.68
2024-02-23T04:41:05.673Z,83.34
2024-02-23T04:43:32.968Z,81.91
2024-02-23T04:45:59.555Z,80.90
2024-02-23T04:48:26.156Z,80.73
2024-02-23T04:50:52.877Z,83.74
2024-02-23T04:53:20.462Z,81.38
2024-02-23T04:55:47.075Z,83.74
2024-02-23T04:58:13.644Z,82.36
2024-02-23T05:00:40.478Z,82.35
2024-02-23T05:03:08.432Z,80.80
2024-02-23T05:05:36.909Z,83.01
2024-02-23T05:08:04.209Z,84.30
2024-02-23T05:10:30.771Z,85.18
2024-02-23T05:12:57.349Z,81.48
2024-02-23T05:15:23.990Z,83.44
2024-02-23T05:17:50.904Z,87.97
2024-02-23T05:20:17.621Z,85.73
2024-02-23T05:22:44.182Z,84.00
2024-02-23T05:25:10.723Z,83.61
2024-02-23T05:27:37.302Z,85.20
2024-02-23T05:30:05.304Z,87.09
2024-02-23T05:32:31.943Z,84.37
2024-02-23T05:34:58.764Z,85.41
2024-02-23T05:37:25.795Z,83.12
2024-02-23T05:39:52.857Z,85.00
2024-02-23T05:42:19.500Z,84.86
2024-02-23T05:44:49.402Z,85.17
2024-02-23T05:47:16.179Z,88.23
2024-02-23T05:49:42.813Z,86.64
2024-02-23T05:52:10.564Z,85.42
2024-02-23T05:54:37.358Z,84.33
2024-02-23T05:57:04.319Z,84.97
2024-02-23T05:59:31.045Z,86.04
2024-02-23T06:01:58.870Z,85.30
2024-02-23T06:04:26.275Z,86.07
2024-02-23T06:06:53.082Z,88.10
2024-02-23T06:09:20.260Z,90.30
2024-02-23T06:11:47.884Z,87.60
2024-02-23T06:14:15.242Z,89.59
2024-02-23T06:16:41.973Z,89.66
2024-02-23T06:19:09.501Z,89.20
2024-02-23T06:21:36.288Z,91.12
2024-02-23T06:24:03.701Z,90.33
2024-02-23T06:26:30.375Z,87.42
2024-02-23T06:28:57.136Z,86.43
2024-02-23T06:31:23.731Z,86.92
2024-02-23T06:33:52.356Z,87.68
2024-02-23T06:36:19.643Z,89.03
2024-02-23T06:38:46.675Z,86.16
2024-02-23T06:41:13.608Z,86.62
2024-02-23T06:43:40.381Z,83.49
2024-02-23T06:46:09.792Z,83.37
2024-02-23T06:48:38.301Z,86.05
2024-02-23T06:51:11.193Z,85.08
2024-02-23T06:53:39.307Z,84.40
2024-02-23T06:56:06.763Z,83.69
2024-02-23T06:58:33.518Z,86.12
2024-02-23T07:01:01.278Z,83.96
2024-02-23T07:03:28.059Z,82.07
2024-02-23T07:05:54.901Z,82.87
2024-02-23T07:08:21.609Z,83.42
2024-02-23T07:10:48.252Z,82.56
2024-02-23T07:13:15.236Z,81.67
2024-02-23T07:15:42.244Z,83.80
2024-02-23T07:18:09.742Z,81.78
2024-02-23T07:20:38.343Z,82.95
2024-02-23T07:23:06.203Z,81.99
2024-02-23T07:25:32.822Z,82.32
2024-02-23T07:27:59.541Z,81.17
2024-02-23T07:30:26.231Z,81.35
2024-02-23T07:32:53.748Z,80.74
2024-02-23T07:35:20.750Z,79.82
2024-02-23T07:37:47.768Z,80.93
2024-02-23T07:40:16.606Z,80.19
2024-02-23T07:42:44.833Z,79.65
2024-02-23T07:45:11.985Z,79.56
2024-02-23T07:47:38.874Z,80.14
2024-02-23T07:50:06.420Z,78.06
2024-02-23T07:52:33.286Z,79.79
2024-02-23T07:55:01.317Z,78.81
2024-02-23T07:57:28.035Z,79.19
2024-02-23T07:59:54.723Z,78.68
2024-02-23T08:02:21.294Z,78.69
2024-02-23T08:04:48.900Z,79.11
2024-02-23T08:07:15.942Z,79.25
2024-02-23T08:09:42.584Z,80.48
2024-02-23T08:12:09.848Z,79.19
2024-02-23T08:14:36.702Z,78.46
2024-02-23T08:17:03.961Z,78.98
2024-02-23T08:19:30.660Z,78.84
2024-02-23T08:21:58.542Z,76.83
2024-02-23T08:24:27.393Z,77.09
2024-02-23T08:26:54.854Z,80.18
2024-02-23T08:29:21.825Z,75.76
2024-02-23T08:31:49.003Z,77.54
2024-02-23T08:34:15.635Z,77.13
2024-02-23T08:36:42.247Z,76.57
2024-02-23T08:39:10.042Z,75.97
2024-02-23T08:41:37.004Z,76.99
2024-02-23T08:44:04.037Z,76.72
2024-02-23T08:46:30.696Z,75.68
2024-02-23T08:48:57.303Z,76.00
2024-02-23T08:51:23.916Z,76.50
2024-02-23T08:53:50.688Z,78.75
2024-02-23T08:56:17.422Z,78.24
2024-02-23T08:58:44.239Z,76.54
2024-02-23T09:01:11.008Z,76.79
2024-02-23T09:03:37.579Z,77.13
2024-02-23T09:06:05.091Z,79.50
2024-02-23T09:08:31.947Z,78.31
2024-02-23T09:10:59.206Z,78.45
2024-02-23T09:13:27.634Z,79.28
2024-02-23T09:15:54.398Z,79.04
2024-02-23T09:18:21.455Z,81.13
2024-02-23T09:20:48.458Z,78.16
2024-02-23T09:23:15.513Z,79.67
2024-02-23T09:25:44.250Z,79.08
2024-02-23T09:28:12.439Z,78.33
2024-02-23T09:30:39.559Z,79.86
2024-02-23T09:33:06.678Z,77.12
2024-02-23T09:35:33.546Z,75.50
2024-02-23T09:38:00.363Z,76.47
2024-02-23T09:40:27.826Z,77.78
2024-02-23T09:43:00.339Z,77.20
2024-02-23T09:45:28.773Z,77.07
2024-02-23T09:47:59.367Z,77.14
2024-02-23T09:50:26.664Z,78.84
2024-02-23T09:52:53.643Z,76.44
2024-02-23T09:55:23.369Z,76.68
2024-02-23T09:57:59.184Z,78.36
2024-02-23T10:00:26.731Z,78.06
2024-02-23T10:02:55.837Z,78.81
2024-02-23T10:05:35.749Z,78.22
2024-02-23T10:08:05.194Z,79.53
2024-02-23T10:10:34.932Z,77.62
2024-02-23T10:13:02.820Z,78.59
2024-02-23T10:15:31.682Z,80.49
2024-02-23T10:17:58.428Z,79.68
2024-02-23T10:20:25.048Z,78.35
2024-02-23T10:22:53.980Z,78.45
2024-02-23T10:25:20.933Z,76.82
2024-02-23T10:27:47.505Z,80.77
2024-02-23T10:30:16.517Z,80.53
2024-02-23T10:32:44.550Z,76.69
2024-02-23T10:35:17.425Z,79.30
2024-02-23T10:37:49.849Z,75.74
2024-02-23T10:40:19.018Z,74.73
2024-02-23T10:42:51.474Z,72.61
2024-02-23T10:45:21.076Z,72.77
2024-02-23T10:47:51.028Z,71.97
2024-02-23T10:50:20.972Z,70.96
2024-02-23T10:52:47.866Z,71.15
2024-02-23T10:55:16.203Z,75.65
2024-02-23T10:57:43.029Z,75.72
2024-02-23T11:00:11.755Z,76.70
2024-02-23T11:02:48.664Z,78.45
2024-02-23T11:05:17.644Z,78.75
2024-02-23T11:07:50.212Z,77.14
2024-02-23T11:10:17.935Z,76.36
2024-02-23T11:12:45.246Z,75.69
2024-02-23T11:15:29.048Z,75.82
2024-02-23T11:17:56.734Z,77.52
2024-02-23T11:20:30.477Z,75.23
2024-02-23T11:22:59.687Z,75.56
2024-02-23T11:25:30.739Z,75.01
2024-02-23T11:27:57.346Z,73.80
2024-02-23T11:30:23.968Z,72.44
2024-02-23T11:32:59.158Z,71.68
2024-02-23T11:35:28.666Z,67.07
2024-02-23T11:38:02.773Z,66.70
2024-02-23T11:40:31.777Z,69.89
2024-02-23T11:43:01.415Z,65.78
2024-02-23T11:45:31.876Z,66.32
2024-02-23T11:47:58.706Z,64.03
2024-02-23T11:50:25.493Z,65.63
2024-02-23T11:52:52.486Z,65.50
2024-02-23T11:55:23.655Z,62.91
2024-02-23T11:57:58.693Z,64.43
2024-02-23T12:00:32.125Z,64.28
2024-02-23T12:02:58.854Z,62.52
2024-02-23T12:05:25.429Z,65.80
2024-02-23T12:07:52.969Z,63.33
2024-02-23T12:10:20.157Z,63.45
2024-02-23T12:12:47.287Z,63.13
2024-02-23T12:15:14.140Z,63.37
2024-02-23T12:17:49.901Z,64.63
2024-02-23T12:20:17.279Z,61.55
2024-02-23T12:22:45.125Z,62.15
2024-02-23T12:25:13.999Z,61.66
2024-02-23T12:27:40.993Z,61.77
2024-02-23T12:30:16.099Z,63.84
2024-02-23T12:32:43.309Z,63.60
2024-02-23T12:35:13.760Z,63.88
2024-02-23T12:37:44.525Z,63.98
2024-02-23T12:40:12.575Z,62.48
2024-02-23T12:42:39.340Z,61.03
2024-02-23T12:45:06.388Z,60.85
2024-02-23T12:47:33.023Z,64.18
2024-02-23T12:49:59.637Z,61.78
2024-02-23T12:52:26.809Z,61.46
2024-02-23T12:54:53.330Z,62.29
2024-02-23T12:57:19.912Z,60.74
2024-02-23T12:59:46.667Z,58.92
2024-02-23T13:02:13.555Z,60.09
2024-02-23T13:04:40.345Z,61.40
2024-02-23T13:07:07.222Z,60.79
2024-02-23T13:09:33.873Z,61.77
2024-02-23T13:12:00.685Z,60.36
2024-02-23T13:14:27.400Z,58.14
2024-02-23T13:16:54.179Z,58.87
2024-02-23T13:19:20.779Z,59.84
2024-02-23T13:21:47.560Z,57.82
2024-02-23T13:24:14.201Z,60.24
2024-02-23T13:26:40.745Z,58.88
2024-02-23T13:29:07.991Z,60.15
2024-02-23T13:31:34.722Z,58.46
2024-02-23T13:34:01.441Z,58.89
2024-02-23T13:36:28.081Z,60.31
2024-02-23T13:38:55.433Z,60.48
2024-02-23T13:41:22.957Z,59.65
2024-02-23T13:43:49.529Z,60.00
2024-02-23T13:46:16.109Z,61.27
2024-02-23T13:48:42.863Z,63.34
2024-02-23T13:51:09.739Z,59.31
2024-02-23T13:53:38.466Z,60.78
2024-02-23T13:56:05.723Z,63.50
2024-02-23T13:58:32.408Z,62.50
2024-02-23T14:00:59.304Z,64.02
2024-02-23T14:03:26.196Z,64.18
2024-02-23T14:05:52.967Z,66.74
2024-02-23T14:08:19.751Z,73.29
2024-02-23T14:10:46.561Z,69.80
2024-02-23T14:13:13.776Z,69.90
2024-02-23T14:15:40.381Z,77.80
2024-02-23T14:18:07.117Z,87.65
2024-02-23T14:20:33.741Z,88.63
2024-02-23T14:23:00.387Z,89.92
2024-02-23T14:25:27.100Z,97.80
2024-02-23T14:27:53.810Z,89.81
2024-02-23T14:30:20.384Z,96.96
2024-02-23T14:32:47.419Z,91.14
2024-02-23T14:35:14.551Z,94.33
2024-02-23T14:37:41.444Z,97.02
2024-02-23T14:40:09.012Z,96.25
2024-02-23T14:42:35.699Z,98.87
2024-02-23T14:45:02.219Z,100.00
2024-02-23T14:47:32.630Z,100.00
2024-02-23T14:50:06.283Z,100.00
2024-02-23T14:52:33.065Z,100.00
2024-02-23T14:54:59.564Z,100.00
2024-02-23T14:57:26.249Z,100.00
2024-02-23T14:59:53.082Z,100.00
2024-02-23T15:02:23.974Z,100.00
2024-02-23T15:04:50.682Z,100.00
2024-02-23T15:07:17.749Z,100.00
2024-02-23T15:09:44.434Z,100.00
2024-02-23T15:12:12.881Z,100.00
2024-02-23T15:14:39.545Z,100.00
2024-02-23T15:17:06.416Z,100.00
2024-02-23T15:19:33.195Z,100.00
2024-02-23T15:22:00.464Z,100.00
2024-02-23T15:24:27.158Z,100.00
2024-02-23T15:26:53.749Z,100.00
2024-02-23T15:29:20.377Z,100.00
2024-02-23T15:31:47.303Z,100.00
2024-02-23T15:34:14.009Z,100.00
2024-02-23T15:36:40.828Z,100.00
2024-02-23T15:39:08.092Z,100.00
2024-02-23T15:41:35.939Z,100.00
2024-02-23T15:44:03.972Z,100.00
2024-02-23T15:46:32.082Z,100.00
2024-02-23T15:48:58.783Z,100.00
2024-02-23T15:51:37.241Z,100.00
2024-02-23T15:54:13.489Z,100.00
2024-02-23T15:56:41.190Z,100.00
2024-02-23T15:59:09.322Z,100.00
2024-02-23T16:01:37.954Z,100.00
2024-02-23T16:04:05.725Z,100.00
2024-02-23T16:06:35.337Z,100.00
2024-02-23T16:09:03.567Z,100.00
2024-02-23T16:11:33.079Z,100.00
2024-02-23T16:14:00.658Z,100.00
2024-02-23T16:16:27.326Z,100.00
2024-02-23T16:18:53.997Z,100.00
2024-02-23T16:21:20.666Z,100.00
2024-02-23T16:23:47.468Z,100.00
2024-02-23T16:26:14.489Z,100.00
2024-02-23T16:28:41.134Z,100.00
2024-02-23T16:31:07.680Z,100.00
2024-02-23T16:33:34.416Z,100.00
2024-02-23T16:36:02.342Z,100.00
2024-02-23T16:38:29.027Z,100.00
2024-02-23T16:40:56.042Z,100.00
2024-02-23T16:43:22.751Z,100.00
2024-02-23T16:45:49.375Z,100.00
2024-02-23T16:48:17.079Z,100.00
2024-02-23T16:50:46.868Z,100.00
2024-02-23T16:53:14.500Z,100.00
2024-02-23T16:55:41.277Z,100.00
2024-02-23T16:58:08.494Z,100.00
2024-02-23T17:00:35.076Z,100.00
2024-02-23T17:03:01.977Z,100.00
2024-02-23T17:05:28.926Z,100.00
2024-02-23T17:07:57.124Z,100.00
2024-02-23T17:10:24.613Z,100.00
2024-02-23T17:12:53.793Z,100.00
2024-02-23T17:15:20.588Z,100.00
2024-02-23T17:17:48.003Z,100.00
2024-02-23T17:20:15.101Z,99.38
2024-02-23T17:22:42.326Z,100.00
2024-02-23T17:25:09.362Z,97.66
2024-02-23T17:27:36.240Z,100.00
2024-02-23T17:30:03.133Z,100.00
2024-02-23T17:32:29.787Z,98.11
2024-02-23T17:34:56.392Z,100.00
2024-02-23T17:37:25.801Z,99.90
2024-02-23T17:39:54.979Z,100.00
2024-02-23T17:42:21.980Z,95.27
2024-02-23T17:44:49.035Z,100.00
2024-02-23T17:47:17.478Z,100.00
2024-02-23T17:49:46.985Z,97.06
2024-02-23T17:52:13.702Z,94.87
2024-02-23T17:54:40.545Z,95.33
2024-02-23T17:57:07.350Z,95.70
2024-02-23T17:59:35.220Z,96.80
2024-02-23T18:02:02.252Z,93.45
2024-02-23T18:04:28.911Z,95.58
2024-02-23T18:06:55.906Z,93.71
2024-02-23T18:09:22.545Z,94.50
2024-02-23T18:11:49.201Z,93.15
2024-02-23T18:14:15.955Z,94.95
2024-02-23T18:16:46.327Z,95.04
2024-02-23T18:19:13.232Z,93.85
2024-02-23T18:21:39.879Z,94.59
2024-02-23T18:24:07.773Z,94.81
2024-02-23T18:26:35.864Z,96.00
2024-02-23T18:29:03.642Z,95.74
2024-02-23T18:31:30.423Z,96.66
2024-02-23T18:33:58.354Z,96.28
2024-02-23T18:36:25.382Z,100.00
2024-02-23T18:38:52.639Z,97.11
2024-02-23T18:41:19.371Z,97.54
2024-02-23T18:43:48.412Z,97.91
2024-02-23T18:46:15.109Z,98.99
2024-02-23T18:48:41.969Z,97.82
2024-02-23T18:51:09.492Z,95.34
2024-02-23T18:53:36.576Z,96.40
2024-02-23T18:56:06.594Z,98.21
2024-02-23T18:58:33.956Z,97.69
2024-02-23T19:01:00.963Z,100.00
2024-02-23T19:03:27.629Z,99.07
2024-02-23T19:05:54.681Z,100.00
2024-02-23T19:08:21.402Z,100.00
2024-02-23T19:10:47.998Z,100.00
2024-02-23T19:13:14.833Z,100.00
2024-02-23T19:15:41.665Z,100.00
2024-02-23T19:18:08.380Z,100.00
2024-02-23T19:20:35.321Z,100.00
2024-02-23T19:23:04.064Z,100.00
2024-02-23T19:25:31.224Z,100.00
2024-02-23T19:27:59.269Z,100.00
2024-02-23T19:30:25.851Z,100.00
2024-02-23T19:32:52.578Z,100.00
2024-02-23T19:35:19.422Z,100.00
2024-02-23T19:37:46.035Z,100.00
2024-02-23T19:40:14.591Z,100.00
2024-02-23T19:42:41.415Z,100.00
2024-02-23T19:45:08.490Z,100.00
2024-02-23T19:47:35.298Z,100.00
2024-02-23T19:50:02.148Z,100.00
2024-02-23T19:52:30.699Z,100.00
2024-02-23T19:54:57.296Z,100.00
2024-02-23T19:57:27.569Z,100.00
2024-02-23T19:59:54.727Z,100.00
2024-02-23T20:02:21.418Z,100.00
2024-02-23T20:04:53.569Z,100.00
2024-02-23T20:07:22.226Z,100.00
2024-02-23T20:09:49.002Z,100.00
2024-02-23T20:12:15.955Z,100.00
2024-02-23T20:14:42.763Z,100.00
2024-02-23T20:17:10.063Z,100.00
2024-02-23T20:19:37.104Z,100.00
2024-02-23T20:22:05.179Z,100.00
2024-02-23T20:24:32.113Z,100.00
2024-02-23T20:27:01.174Z,100.00
2024-02-23T20:31:58.423Z,100.00
2024-02-23T20:34:24.986Z,100.00
2024-02-23T20:36:51.590Z,100.00
2024-02-23T20:39:18.173Z,100.00
2024-02-23T20:41:47.092Z,100.00
2024-02-23T20:44:13.851Z,100.00
2024-02-23T20:46:41.130Z,100.00
2024-02-23T20:49:07.856Z,100.00
2024-02-23T20:51:34.457Z,100.00
2024-02-23T20:54:00.998Z,100.00
2024-02-23T20:56:32.012Z,100.00
2024-02-23T20:58:59.229Z,100.00
2024-02-23T21:01:26.939Z,100.00
2024-02-23T21:03:53.748Z,100.00
2024-02-23T21:06:20.741Z,100.00
2024-02-23T21:08:48.386Z,100.00
2024-02-23T21:11:16.373Z,100.00
2024-02-23T21:13:42.997Z,100.00
2024-02-23T21:16:09.548Z,100.00
2024-02-23T21:18:36.419Z,100.00
2024-02-23T21:21:02.979Z,100.00
2024-02-23T21:23:29.585Z,100.00
2024-02-23T21:25:56.168Z,100.00
2024-02-23T21:28:22.846Z,100.00
2024-02-23T21:30:54.519Z,100.00
2024-02-23T21:33:21.119Z,100.00
2024-02-23T21:35:47.862Z,100.00
2024-02-23T21:38:14.845Z,100.00
2024-02-23T21:40:41.406Z,100.00
2024-02-23T21:43:08.085Z,100.00
2024-02-23T21:45:34.905Z,100.00
2024-02-23T21:48:01.757Z,100.00
2024-02-23T21:50:28.423Z,100.00
2024-02-23T21:52:54.971Z,100.00
2024-02-23T21:55:24.865Z,100.00
2024-02-23T21:57:51.656Z,100.00
2024-02-23T22:00:19.245Z,100.00
2024-02-23T22:02:46.117Z,100.00
2024-02-23T22:05:12.870Z,100.00
2024-02-23T22:07:40.239Z,100.00
2024-02-23T22:10:07.658Z,100.00
2024-02-23T22:12:34.264Z,100.00
2024-02-23T22:15:04.027Z,100.00
2024-02-23T22:17:30.825Z,100.00
2024-02-23T22:19:57.554Z,100.00
2024-02-23T22:22:26.326Z,100.00
2024-02-23T22:24:57.715Z,100.00
2024-02-23T22:27:24.341Z,100.00
2024-02-23T22:29:52.127Z,100.00
2024-02-23T22:32:21.539Z,100.00
2024-02-23T22:34:49.239Z,100.00
2024-02-23T22:37:16.688Z,100.00
2024-02-23T22:39:43.761Z,100.00
2024-02-23T22:42:11.359Z,100.00
2024-02-23T22:44:38.246Z,100.00
2024-02-23T22:47:05.519Z,100.00
2024-02-23T22:49:32.169Z,100.00
2024-02-23T22:51:58.822Z,100.00
2024-02-23T22:54:26.070Z,100.00
2024-02-23T22:56:52.594Z,100.00
2024-02-23T22:59:19.386Z,100.00
2024-02-23T23:01:46.057Z,100.00
2024-02-23T23:04:12.750Z,100.00
2024-02-23T23:06:41.944Z,100.00
2024-02-23T23:09:10.566Z,100.00
2024-02-23T23:11:38.315Z,100.00
2024-02-23T23:14:05.917Z,100.00
2024-02-23T23:16:32.522Z,100.00
2024-02-23T23:18:59.416Z,100.00
2024-02-23T23:21:26.160Z,100.00
2024-02-23T23:23:53.046Z,100.00
2024-02-23T23:26:20.467Z,100.00
2024-02-23T23:28:48.515Z,100.00
2024-02-23T23:31:17.828Z,100.00
2024-02-23T23:33:45.957Z,100.00
2024-02-23T23:36:12.683Z,100.00
2024-02-23T23:38:43.436Z,100.00
2024-02-23T23:41:10.398Z,100.00
2024-02-23T23:43:37.139Z,100.00
2024-02-23T23:46:04.561Z,100.00
2024-02-23T23:48:32.461Z,100.00
2024-02-23T23:50:59.426Z,100.00
2024-02-23T23:53:27.984Z,100.00
2024-02-23T23:55:54.641Z,100.00
2024-02-23T23:58:21.829Z,100.00
